sensor_id;sensor_type;location;lat;lon;timestamp;P1;durP1;ratioP1;P2;durP2;ratioP2
81725;SDS011;71135;16.738;-14.648;2023-09-12T00:00:15;100.50;;;33.47;;
81725;SDS011;71135;16.738;-14.648;2023-09-12T00:02:45;109.13;;;34.05;;
81725;SDS011;71135;16.738;-14.648;2023-09-12T00:05:14;88.88;;;32.92;;
81725;SDS011;71135;16.738;-14.648;2023-09-12T00:07:48;86.90;;;31.88;;
81725;SDS011;71135;16.738;-14.648;2023-09-12T00:10:20;84.18;;;34.47;;
81725;SDS011;71135;16.738;-14.648;2023-09-12T00:12:50;99.78;;;36.50;;
81725;SDS011;71135;16.738;-14.648;2023-09-12T00:15:19;119.88;;;37.40;;
81725;SDS011;71135;16.738;-14.648;2023-09-12T00:17:49;119.13;;;38.40;;
81725;SDS011;71135;16.738;-14.648;2023-09-12T00:20:18;98.43;;;34.63;;
81725;SDS011;71135;16.738;-14.648;2023-09-12T00:22:50;111.68;;;35.80;;
81725;SDS011;71135;16.738;-14.648;2023-09-12T00:25:20;88.15;;;33.65;;
81725;SDS011;71135;16.738;-14.648;2023-09-12T00:27:49;93.07;;;33.03;;
81725;SDS011;71135;16.738;-14.648;2023-09-12T00:30:18;80.15;;;32.22;;
81725;SDS011;71135;16.738;-14.648;2023-09-12T00:32:47;90.68;;;31.65;;
81725;SDS011;71135;16.738;-14.648;2023-09-12T00:35:17;101.22;;;32.85;;
81725;SDS011;71135;16.738;-14.648;2023-09-12T00:37:46;83.95;;;30.95;;
81725;SDS011;71135;16.738;-14.648;2023-09-12T00:40:18;101.78;;;32.95;;
81725;SDS011;71135;16.738;-14.648;2023-09-12T00:42:47;86.68;;;30.63;;
81725;SDS011;71135;16.738;-14.648;2023-09-12T00:45:16;102.45;;;32.58;;
81725;SDS011;71135;16.738;-14.648;2023-09-12T00:47:45;114.35;;;34.20;;
81725;SDS011;71135;16.738;-14.648;2023-09-12T00:50:15;80.90;;;32.83;;
81725;SDS011;71135;16.738;-14.648;2023-09-12T00:52:46;98.18;;;32.60;;
81725;SDS011;71135;16.738;-14.648;2023-09-12T00:55:18;107.18;;;35.20;;
81725;SDS011;71135;16.738;-14.648;2023-09-12T00:57:48;101.13;;;33.60;;
81725;SDS011;71135;16.738;-14.648;2023-09-12T01:00:18;103.53;;;34.83;;
81725;SDS011;71135;16.738;-14.648;2023-09-12T01:02:47;109.80;;;34.33;;
81725;SDS011;71135;16.738;-14.648;2023-09-12T01:05:18;87.40;;;33.20;;
81725;SDS011;71135;16.738;-14.648;2023-09-12T01:07:49;115.90;;;34.38;;
81725;SDS011;71135;16.738;-14.648;2023-09-12T01:10:21;98.82;;;32.53;;
81725;SDS011;71135;16.738;-14.648;2023-09-12T01:12:50;103.43;;;32.17;;
81725;SDS011;71135;16.738;-14.648;2023-09-12T01:15:20;88.45;;;32.15;;
81725;SDS011;71135;16.738;-14.648;2023-09-12T01:17:49;119.07;;;34.97;;
81725;SDS011;71135;16.738;-14.648;2023-09-12T01:20:19;124.10;;;34.05;;
81725;SDS011;71135;16.738;-14.648;2023-09-12T01:23:00;114.40;;;34.95;;
81725;SDS011;71135;16.738;-14.648;2023-09-12T01:25:45;98.40;;;31.55;;
81725;SDS011;71135;16.738;-14.648;2023-09-12T01:28:49;117.72;;;34.15;;
81725;SDS011;71135;16.738;-14.648;2023-09-12T01:31:19;128.65;;;36.67;;
81725;SDS011;71135;16.738;-14.648;2023-09-12T01:33:54;123.05;;;34.67;;
81725;SDS011;71135;16.738;-14.648;2023-09-12T01:36:24;127.10;;;35.17;;
81725;SDS011;71135;16.738;-14.648;2023-09-12T01:38:53;117.28;;;34.58;;
81725;SDS011;71135;16.738;-14.648;2023-09-12T01:41:22;111.75;;;32.63;;
81725;SDS011;71135;16.738;-14.648;2023-09-12T01:43:54;122.00;;;33.55;;
81725;SDS011;71135;16.738;-14.648;2023-09-12T01:46:24;88.95;;;31.05;;
81725;SDS011;71135;16.738;-14.648;2023-09-12T01:48:55;103.35;;;32.33;;
81725;SDS011;71135;16.738;-14.648;2023-09-12T01:51:27;116.60;;;34.50;;
81725;SDS011;71135;16.738;-14.648;2023-09-12T01:53:57;107.28;;;33.60;;
81725;SDS011;71135;16.738;-14.648;2023-09-12T01:56:28;110.82;;;34.42;;
81725;SDS011;71135;16.738;-14.648;2023-09-12T01:59:01;100.03;;;33.72;;
81725;SDS011;71135;16.738;-14.648;2023-09-12T02:01:31;127.45;;;36.75;;
81725;SDS011;71135;16.738;-14.648;2023-09-12T02:04:01;129.68;;;36.95;;
81725;SDS011;71135;16.738;-14.648;2023-09-12T02:06:34;154.00;;;37.15;;
81725;SDS011;71135;16.738;-14.648;2023-09-12T02:09:04;153.80;;;38.38;;
81725;SDS011;71135;16.738;-14.648;2023-09-12T02:11:33;180.10;;;42.45;;
81725;SDS011;71135;16.738;-14.648;2023-09-12T02:14:05;187.25;;;39.70;;
81725;SDS011;71135;16.738;-14.648;2023-09-12T02:16:37;153.73;;;39.33;;
81725;SDS011;71135;16.738;-14.648;2023-09-12T02:19:06;143.85;;;40.97;;
81725;SDS011;71135;16.738;-14.648;2023-09-12T02:21:35;140.15;;;39.60;;
81725;SDS011;71135;16.738;-14.648;2023-09-12T02:24:05;203.93;;;40.70;;
81725;SDS011;71135;16.738;-14.648;2023-09-12T02:26:35;146.43;;;38.38;;
81725;SDS011;71135;16.738;-14.648;2023-09-12T02:29:07;143.23;;;39.78;;
81725;SDS011;71135;16.738;-14.648;2023-09-12T02:31:36;140.98;;;37.80;;
81725;SDS011;71135;16.738;-14.648;2023-09-12T02:34:07;146.20;;;37.80;;
81725;SDS011;71135;16.738;-14.648;2023-09-12T02:36:36;154.93;;;37.17;;
81725;SDS011;71135;16.738;-14.648;2023-09-12T02:39:05;117.57;;;37.45;;
81725;SDS011;71135;16.738;-14.648;2023-09-12T02:41:34;180.32;;;40.55;;
81725;SDS011;71135;16.738;-14.648;2023-09-12T02:44:07;163.15;;;39.25;;
81725;SDS011;71135;16.738;-14.648;2023-09-12T02:46:36;165.25;;;38.03;;
81725;SDS011;71135;16.738;-14.648;2023-09-12T02:49:05;158.15;;;38.95;;
81725;SDS011;71135;16.738;-14.648;2023-09-12T02:51:36;152.52;;;37.72;;
81725;SDS011;71135;16.738;-14.648;2023-09-12T02:54:07;176.15;;;39.13;;
81725;SDS011;71135;16.738;-14.648;2023-09-12T02:56:36;180.80;;;38.47;;
81725;SDS011;71135;16.738;-14.648;2023-09-12T02:59:08;199.48;;;41.65;;
81725;SDS011;71135;16.738;-14.648;2023-09-12T03:01:38;144.80;;;38.63;;
81725;SDS011;71135;16.738;-14.648;2023-09-12T03:04:08;146.05;;;39.63;;
81725;SDS011;71135;16.738;-14.648;2023-09-12T03:06:37;151.52;;;41.63;;
81725;SDS011;71135;16.738;-14.648;2023-09-12T03:09:06;196.45;;;43.35;;
81725;SDS011;71135;16.738;-14.648;2023-09-12T03:11:36;135.73;;;39.22;;
81725;SDS011;71135;16.738;-14.648;2023-09-12T03:14:09;150.20;;;39.83;;
81725;SDS011;71135;16.738;-14.648;2023-09-12T03:16:38;162.63;;;41.45;;
81725;SDS011;71135;16.738;-14.648;2023-09-12T03:19:10;129.35;;;38.00;;
81725;SDS011;71135;16.738;-14.648;2023-09-12T03:21:39;215.50;;;41.40;;
81725;SDS011;71135;16.738;-14.648;2023-09-12T03:24:08;226.40;;;41.80;;
81725;SDS011;71135;16.738;-14.648;2023-09-12T03:26:37;169.70;;;40.80;;
81725;SDS011;71135;16.738;-14.648;2023-09-12T03:29:10;160.82;;;39.25;;
81725;SDS011;71135;16.738;-14.648;2023-09-12T03:31:39;207.27;;;41.20;;
81725;SDS011;71135;16.738;-14.648;2023-09-12T03:34:08;200.77;;;38.53;;
81725;SDS011;71135;16.738;-14.648;2023-09-12T03:36:37;226.48;;;42.33;;
81725;SDS011;71135;16.738;-14.648;2023-09-12T03:39:06;215.55;;;39.85;;
81725;SDS011;71135;16.738;-14.648;2023-09-12T03:41:38;138.30;;;36.45;;
81725;SDS011;71135;16.738;-14.648;2023-09-12T03:44:10;169.82;;;38.20;;
81725;SDS011;71135;16.738;-14.648;2023-09-12T03:46:40;280.55;;;40.80;;
81725;SDS011;71135;16.738;-14.648;2023-09-12T03:49:09;222.85;;;40.90;;
81725;SDS011;71135;16.738;-14.648;2023-09-12T03:51:39;192.90;;;37.55;;
81725;SDS011;71135;16.738;-14.648;2023-09-12T03:54:08;233.52;;;38.67;;
81725;SDS011;71135;16.738;-14.648;2023-09-12T03:56:37;265.48;;;41.55;;
81725;SDS011;71135;16.738;-14.648;2023-09-12T03:59:07;261.17;;;40.53;;
81725;SDS011;71135;16.738;-14.648;2023-09-12T04:01:38;240.90;;;39.72;;
81725;SDS011;71135;16.738;-14.648;2023-09-12T04:04:08;175.52;;;36.95;;
81725;SDS011;71135;16.738;-14.648;2023-09-12T04:06:37;412.95;;;46.45;;
81725;SDS011;71135;16.738;-14.648;2023-09-12T04:09:06;131.35;;;35.65;;
81725;SDS011;71135;16.738;-14.648;2023-09-12T04:11:35;324.23;;;43.60;;
81725;SDS011;71135;16.738;-14.648;2023-09-12T04:14:04;175.35;;;38.03;;
81725;SDS011;71135;16.738;-14.648;2023-09-12T04:16:33;133.05;;;35.50;;
81725;SDS011;71135;16.738;-14.648;2023-09-12T04:19:05;163.88;;;38.20;;
81725;SDS011;71135;16.738;-14.648;2023-09-12T04:21:34;278.35;;;42.00;;
81725;SDS011;71135;16.738;-14.648;2023-09-12T04:24:04;154.90;;;40.05;;
81725;SDS011;71135;16.738;-14.648;2023-09-12T04:26:35;198.90;;;41.67;;
81725;SDS011;71135;16.738;-14.648;2023-09-12T04:29:04;154.10;;;39.33;;
81725;SDS011;71135;16.738;-14.648;2023-09-12T04:31:33;199.73;;;41.15;;
81725;SDS011;71135;16.738;-14.648;2023-09-12T04:34:02;211.38;;;41.47;;
81725;SDS011;71135;16.738;-14.648;2023-09-12T04:36:34;135.70;;;37.78;;
81725;SDS011;71135;16.738;-14.648;2023-09-12T04:39:03;135.88;;;37.80;;
81725;SDS011;71135;16.738;-14.648;2023-09-12T04:41:33;143.65;;;38.20;;
81725;SDS011;71135;16.738;-14.648;2023-09-12T04:44:03;160.40;;;38.25;;
81725;SDS011;71135;16.738;-14.648;2023-09-12T04:46:33;138.93;;;37.78;;
81725;SDS011;71135;16.738;-14.648;2023-09-12T04:49:05;115.72;;;37.22;;
81725;SDS011;71135;16.738;-14.648;2023-09-12T04:51:35;119.85;;;37.65;;
81725;SDS011;71135;16.738;-14.648;2023-09-12T04:54:04;103.55;;;36.50;;
81725;SDS011;71135;16.738;-14.648;2023-09-12T04:56:34;105.28;;;35.55;;
81725;SDS011;71135;16.738;-14.648;2023-09-12T04:59:03;115.30;;;35.78;;
81725;SDS011;71135;16.738;-14.648;2023-09-12T05:01:32;130.15;;;35.95;;
81725;SDS011;71135;16.738;-14.648;2023-09-12T05:04:02;140.05;;;36.83;;
81725;SDS011;71135;16.738;-14.648;2023-09-12T05:06:34;106.05;;;33.78;;
81725;SDS011;71135;16.738;-14.648;2023-09-12T05:09:04;97.90;;;35.13;;
81725;SDS011;71135;16.738;-14.648;2023-09-12T05:11:34;99.88;;;34.30;;
81725;SDS011;71135;16.738;-14.648;2023-09-12T05:14:04;95.25;;;35.28;;
81725;SDS011;71135;16.738;-14.648;2023-09-12T05:16:33;93.03;;;33.70;;
81725;SDS011;71135;16.738;-14.648;2023-09-12T05:19:02;101.65;;;35.83;;
81725;SDS011;71135;16.738;-14.648;2023-09-12T05:21:34;107.15;;;34.92;;
81725;SDS011;71135;16.738;-14.648;2023-09-12T05:24:05;95.13;;;35.58;;
81725;SDS011;71135;16.738;-14.648;2023-09-12T05:26:34;104.88;;;36.67;;
81725;SDS011;71135;16.738;-14.648;2023-09-12T05:29:04;102.28;;;36.78;;
81725;SDS011;71135;16.738;-14.648;2023-09-12T05:31:33;92.00;;;35.25;;
81725;SDS011;71135;16.738;-14.648;2023-09-12T05:34:02;96.88;;;36.35;;
81725;SDS011;71135;16.738;-14.648;2023-09-12T05:36:32;97.50;;;35.03;;
81725;SDS011;71135;16.738;-14.648;2023-09-12T05:39:03;136.63;;;38.45;;
81725;SDS011;71135;16.738;-14.648;2023-09-12T05:41:33;103.10;;;36.95;;
81725;SDS011;71135;16.738;-14.648;2023-09-12T05:44:03;123.70;;;37.40;;
81725;SDS011;71135;16.738;-14.648;2023-09-12T05:46:32;94.45;;;34.80;;
81725;SDS011;71135;16.738;-14.648;2023-09-12T05:49:01;128.82;;;37.10;;
81725;SDS011;71135;16.738;-14.648;2023-09-12T05:51:31;117.45;;;36.17;;
81725;SDS011;71135;16.738;-14.648;2023-09-12T05:54:03;103.05;;;35.63;;
81725;SDS011;71135;16.738;-14.648;2023-09-12T05:56:33;100.82;;;36.22;;
81725;SDS011;71135;16.738;-14.648;2023-09-12T05:59:03;106.07;;;37.15;;
81725;SDS011;71135;16.738;-14.648;2023-09-12T06:01:32;104.32;;;35.15;;
81725;SDS011;71135;16.738;-14.648;2023-09-12T06:04:01;85.85;;;34.60;;
81725;SDS011;71135;16.738;-14.648;2023-09-12T06:06:30;98.90;;;35.95;;
81725;SDS011;71135;16.738;-14.648;2023-09-12T06:09:02;95.05;;;35.53;;
81725;SDS011;71135;16.738;-14.648;2023-09-12T06:11:32;100.43;;;36.78;;
81725;SDS011;71135;16.738;-14.648;2023-09-12T06:14:01;96.70;;;35.22;;
81725;SDS011;71135;16.738;-14.648;2023-09-12T06:16:30;100.75;;;36.42;;
81725;SDS011;71135;16.738;-14.648;2023-09-12T06:18:59;102.47;;;35.42;;
81725;SDS011;71135;16.738;-14.648;2023-09-12T06:21:28;94.22;;;35.58;;
81725;SDS011;71135;16.738;-14.648;2023-09-12T06:24:13;93.47;;;34.85;;
81725;SDS011;71135;16.738;-14.648;2023-09-12T06:26:43;99.53;;;34.13;;
81725;SDS011;71135;16.738;-14.648;2023-09-12T06:29:12;82.95;;;32.47;;
81725;SDS011;71135;16.738;-14.648;2023-09-12T06:31:42;92.18;;;34.17;;
81725;SDS011;71135;16.738;-14.648;2023-09-12T06:34:11;82.88;;;32.50;;
81725;SDS011;71135;16.738;-14.648;2023-09-12T06:36:40;82.53;;;32.75;;
81725;SDS011;71135;16.738;-14.648;2023-09-12T06:39:13;83.72;;;32.17;;
81725;SDS011;71135;16.738;-14.648;2023-09-12T06:41:42;78.03;;;31.20;;
81725;SDS011;71135;16.738;-14.648;2023-09-12T06:44:11;85.55;;;34.25;;
81725;SDS011;71135;16.738;-14.648;2023-09-12T06:46:40;79.35;;;34.15;;
81725;SDS011;71135;16.738;-14.648;2023-09-12T06:49:10;68.68;;;32.20;;
81725;SDS011;71135;16.738;-14.648;2023-09-12T06:51:39;80.05;;;32.35;;
81725;SDS011;71135;16.738;-14.648;2023-09-12T06:54:08;67.93;;;33.15;;
81725;SDS011;71135;16.738;-14.648;2023-09-12T06:56:40;74.82;;;33.45;;
81725;SDS011;71135;16.738;-14.648;2023-09-12T06:59:10;68.15;;;32.03;;
81725;SDS011;71135;16.738;-14.648;2023-09-12T07:01:39;64.80;;;30.92;;
81725;SDS011;71135;16.738;-14.648;2023-09-12T07:04:09;63.10;;;31.52;;
81725;SDS011;71135;16.738;-14.648;2023-09-12T07:06:38;63.17;;;33.58;;
81725;SDS011;71135;16.738;-14.648;2023-09-12T07:09:08;61.28;;;31.63;;
81725;SDS011;71135;16.738;-14.648;2023-09-12T07:11:42;65.75;;;31.80;;
81725;SDS011;71135;16.738;-14.648;2023-09-12T07:14:11;68.40;;;33.03;;
81725;SDS011;71135;16.738;-14.648;2023-09-12T07:16:41;69.00;;;32.65;;
81725;SDS011;71135;16.738;-14.648;2023-09-12T07:19:10;69.43;;;32.28;;
81725;SDS011;71135;16.738;-14.648;2023-09-12T07:21:39;68.25;;;34.42;;
81725;SDS011;71135;16.738;-14.648;2023-09-12T07:24:08;69.88;;;32.30;;
81725;SDS011;71135;16.738;-14.648;2023-09-12T07:26:37;82.57;;;34.92;;
81725;SDS011;71135;16.738;-14.648;2023-09-12T07:29:09;65.82;;;31.77;;
81725;SDS011;71135;16.738;-14.648;2023-09-12T07:31:39;70.05;;;31.70;;
81725;SDS011;71135;16.738;-14.648;2023-09-12T07:34:08;64.75;;;31.45;;
81725;SDS011;71135;16.738;-14.648;2023-09-12T07:36:40;67.03;;;31.75;;
81725;SDS011;71135;16.738;-14.648;2023-09-12T07:39:09;56.22;;;28.17;;
81725;SDS011;71135;16.738;-14.648;2023-09-12T07:41:38;61.10;;;28.92;;
81725;SDS011;71135;16.738;-14.648;2023-09-12T07:44:10;59.50;;;29.52;;
81725;SDS011;71135;16.738;-14.648;2023-09-12T07:46:41;59.97;;;29.40;;
81725;SDS011;71135;16.738;-14.648;2023-09-12T07:49:10;56.40;;;27.92;;
81725;SDS011;71135;16.738;-14.648;2023-09-12T07:51:39;57.80;;;26.50;;
81725;SDS011;71135;16.738;-14.648;2023-09-12T07:54:08;54.10;;;25.73;;
81725;SDS011;71135;16.738;-14.648;2023-09-12T07:56:37;61.90;;;28.65;;
81725;SDS011;71135;16.738;-14.648;2023-09-12T07:59:06;52.45;;;26.17;;
81725;SDS011;71135;16.738;-14.648;2023-09-12T08:01:39;59.50;;;28.33;;
81725;SDS011;71135;16.738;-14.648;2023-09-12T08:04:09;54.60;;;25.08;;
81725;SDS011;71135;16.738;-14.648;2023-09-12T08:06:40;50.67;;;23.98;;
81725;SDS011;71135;16.738;-14.648;2023-09-12T08:09:09;54.20;;;25.25;;
81725;SDS011;71135;16.738;-14.648;2023-09-12T08:11:38;46.75;;;25.38;;
81725;SDS011;71135;16.738;-14.648;2023-09-12T08:14:10;48.40;;;23.08;;
81725;SDS011;71135;16.738;-14.648;2023-09-12T08:16:39;52.80;;;24.58;;
81725;SDS011;71135;16.738;-14.648;2023-09-12T08:19:08;46.88;;;23.27;;
81725;SDS011;71135;16.738;-14.648;2023-09-12T08:21:37;49.50;;;24.92;;
81725;SDS011;71135;16.738;-14.648;2023-09-12T08:24:07;43.55;;;22.98;;
81725;SDS011;71135;16.738;-14.648;2023-09-12T08:26:36;51.08;;;23.08;;
81725;SDS011;71135;16.738;-14.648;2023-09-12T08:29:05;48.63;;;22.67;;
81725;SDS011;71135;16.738;-14.648;2023-09-12T08:31:37;47.08;;;23.63;;
81725;SDS011;71135;16.738;-14.648;2023-09-12T08:34:06;42.95;;;23.15;;
81725;SDS011;71135;16.738;-14.648;2023-09-12T08:36:35;44.58;;;24.95;;
81725;SDS011;71135;16.738;-14.648;2023-09-12T08:39:04;44.00;;;24.10;;
81725;SDS011;71135;16.738;-14.648;2023-09-12T08:41:35;42.33;;;23.92;;
81725;SDS011;71135;16.738;-14.648;2023-09-12T08:44:04;42.75;;;23.10;;
81725;SDS011;71135;16.738;-14.648;2023-09-12T08:46:37;41.47;;;22.92;;
81725;SDS011;71135;16.738;-14.648;2023-09-12T08:49:07;44.25;;;22.08;;
81725;SDS011;71135;16.738;-14.648;2023-09-12T08:51:37;40.45;;;22.98;;
81725;SDS011;71135;16.738;-14.648;2023-09-12T08:54:08;38.30;;;19.27;;
81725;SDS011;71135;16.738;-14.648;2023-09-12T08:56:39;38.17;;;19.92;;
81725;SDS011;71135;16.738;-14.648;2023-09-12T08:59:10;34.90;;;21.10;;
81725;SDS011;71135;16.738;-14.648;2023-09-12T09:01:42;36.20;;;19.60;;
81725;SDS011;71135;16.738;-14.648;2023-09-12T09:04:15;33.20;;;19.45;;
81725;SDS011;71135;16.738;-14.648;2023-09-12T09:06:45;38.08;;;19.48;;
81725;SDS011;71135;16.738;-14.648;2023-09-12T09:09:15;30.67;;;16.98;;
81725;SDS011;71135;16.738;-14.648;2023-09-12T09:11:45;31.48;;;18.70;;
81725;SDS011;71135;16.738;-14.648;2023-09-12T09:14:14;34.90;;;18.52;;
81725;SDS011;71135;16.738;-14.648;2023-09-12T09:16:49;33.13;;;18.13;;
81725;SDS011;71135;16.738;-14.648;2023-09-12T09:19:18;35.97;;;18.05;;
81725;SDS011;71135;16.738;-14.648;2023-09-12T09:21:48;31.65;;;16.75;;
81725;SDS011;71135;16.738;-14.648;2023-09-12T09:24:17;33.83;;;18.45;;
81725;SDS011;71135;16.738;-14.648;2023-09-12T09:26:48;32.15;;;16.55;;
81725;SDS011;71135;16.738;-14.648;2023-09-12T09:29:24;30.23;;;17.40;;
81725;SDS011;71135;16.738;-14.648;2023-09-12T09:32:00;29.52;;;16.95;;
81725;SDS011;71135;16.738;-14.648;2023-09-12T09:34:31;25.90;;;15.00;;
81725;SDS011;71135;16.738;-14.648;2023-09-12T09:37:00;27.70;;;15.95;;
81725;SDS011;71135;16.738;-14.648;2023-09-12T09:39:33;30.77;;;15.45;;
81725;SDS011;71135;16.738;-14.648;2023-09-12T09:42:03;31.73;;;16.38;;
81725;SDS011;71135;16.738;-14.648;2023-09-12T09:44:39;30.45;;;17.98;;
81725;SDS011;71135;16.738;-14.648;2023-09-12T09:47:11;28.40;;;17.40;;
81725;SDS011;71135;16.738;-14.648;2023-09-12T09:49:40;29.92;;;17.63;;
81725;SDS011;71135;16.738;-14.648;2023-09-12T09:52:13;28.17;;;16.27;;
81725;SDS011;71135;16.738;-14.648;2023-09-12T09:54:43;29.50;;;15.73;;
81725;SDS011;71135;16.738;-14.648;2023-09-12T09:57:13;30.45;;;15.95;;
81725;SDS011;71135;16.738;-14.648;2023-09-12T09:59:43;24.45;;;15.27;;
81725;SDS011;71135;16.738;-14.648;2023-09-12T10:02:21;25.75;;;14.50;;
81725;SDS011;71135;16.738;-14.648;2023-09-12T10:04:54;27.10;;;14.95;;
81725;SDS011;71135;16.738;-14.648;2023-09-12T10:07:24;27.88;;;15.50;;
81725;SDS011;71135;16.738;-14.648;2023-09-12T10:09:54;24.83;;;14.38;;
81725;SDS011;71135;16.738;-14.648;2023-09-12T10:12:25;28.98;;;15.77;;
81725;SDS011;71135;16.738;-14.648;2023-09-12T10:14:56;25.40;;;14.88;;
81725;SDS011;71135;16.738;-14.648;2023-09-12T10:17:31;30.35;;;15.52;;
81725;SDS011;71135;16.738;-14.648;2023-09-12T10:20:07;25.80;;;15.43;;
81725;SDS011;71135;16.738;-14.648;2023-09-12T10:22:43;25.98;;;15.57;;
81725;SDS011;71135;16.738;-14.648;2023-09-12T10:25:20;28.17;;;15.77;;
81725;SDS011;71135;16.738;-14.648;2023-09-12T10:27:50;25.02;;;14.98;;
81725;SDS011;71135;16.738;-14.648;2023-09-12T10:30:21;29.13;;;15.00;;
81725;SDS011;71135;16.738;-14.648;2023-09-12T10:32:53;25.33;;;15.50;;
81725;SDS011;71135;16.738;-14.648;2023-09-12T10:35:23;23.00;;;13.90;;
81725;SDS011;71135;16.738;-14.648;2023-09-12T10:37:52;25.08;;;14.55;;
81725;SDS011;71135;16.738;-14.648;2023-09-12T10:40:25;22.88;;;13.90;;
81725;SDS011;71135;16.738;-14.648;2023-09-12T10:42:56;23.48;;;13.73;;
81725;SDS011;71135;16.738;-14.648;2023-09-12T10:45:26;24.10;;;14.23;;
81725;SDS011;71135;16.738;-14.648;2023-09-12T10:47:59;25.88;;;15.13;;
81725;SDS011;71135;16.738;-14.648;2023-09-12T10:50:29;26.02;;;15.90;;
81725;SDS011;71135;16.738;-14.648;2023-09-12T10:53:07;23.38;;;15.15;;
81725;SDS011;71135;16.738;-14.648;2023-09-12T10:55:38;23.67;;;16.02;;
81725;SDS011;71135;16.738;-14.648;2023-09-12T10:58:08;23.50;;;14.10;;
81725;SDS011;71135;16.738;-14.648;2023-09-12T11:00:38;19.20;;;13.55;;
81725;SDS011;71135;16.738;-14.648;2023-09-12T11:06:19;23.17;;;14.90;;
81725;SDS011;71135;16.738;-14.648;2023-09-12T11:11:46;25.00;;;15.30;;
81725;SDS011;71135;16.738;-14.648;2023-09-12T11:14:17;25.10;;;16.13;;
81725;SDS011;71135;16.738;-14.648;2023-09-12T11:19:48;23.92;;;15.68;;
81725;SDS011;71135;16.738;-14.648;2023-09-12T11:22:22;20.10;;;13.70;;
81725;SDS011;71135;16.738;-14.648;2023-09-12T11:24:56;23.48;;;14.90;;
81725;SDS011;71135;16.738;-14.648;2023-09-12T11:27:31;23.15;;;14.05;;
81725;SDS011;71135;16.738;-14.648;2023-09-12T11:30:12;21.73;;;13.38;;
81725;SDS011;71135;16.738;-14.648;2023-09-12T11:32:43;22.63;;;13.75;;
81725;SDS011;71135;16.738;-14.648;2023-09-12T11:35:21;20.02;;;12.35;;
81725;SDS011;71135;16.738;-14.648;2023-09-12T11:37:53;19.98;;;12.40;;
81725;SDS011;71135;16.738;-14.648;2023-09-12T11:40:23;22.60;;;14.18;;
81725;SDS011;71135;16.738;-14.648;2023-09-12T11:42:53;23.63;;;14.75;;
81725;SDS011;71135;16.738;-14.648;2023-09-12T11:45:23;22.67;;;14.20;;
81725;SDS011;71135;16.738;-14.648;2023-09-12T11:47:53;22.23;;;15.27;;
81725;SDS011;71135;16.738;-14.648;2023-09-12T11:50:28;23.27;;;15.27;;
81725;SDS011;71135;16.738;-14.648;2023-09-12T11:52:58;18.63;;;13.50;;
81725;SDS011;71135;16.738;-14.648;2023-09-12T11:55:30;21.65;;;14.43;;
81725;SDS011;71135;16.738;-14.648;2023-09-12T11:58:00;22.98;;;14.10;;
81725;SDS011;71135;16.738;-14.648;2023-09-12T12:00:30;18.95;;;12.52;;
81725;SDS011;71135;16.738;-14.648;2023-09-12T12:03:00;20.38;;;13.20;;
81725;SDS011;71135;16.738;-14.648;2023-09-12T12:05:32;19.20;;;12.32;;
81725;SDS011;71135;16.738;-14.648;2023-09-12T12:08:03;15.18;;;10.60;;
81725;SDS011;71135;16.738;-14.648;2023-09-12T12:10:33;15.88;;;10.93;;
81725;SDS011;71135;16.738;-14.648;2023-09-12T12:13:04;15.77;;;11.18;;
81725;SDS011;71135;16.738;-14.648;2023-09-12T12:15:34;15.30;;;9.85;;
81725;SDS011;71135;16.738;-14.648;2023-09-12T12:18:03;13.15;;;7.65;;
81725;SDS011;71135;16.738;-14.648;2023-09-12T12:20:35;10.55;;;8.10;;
81725;SDS011;71135;16.738;-14.648;2023-09-12T12:23:04;13.82;;;9.27;;
81725;SDS011;71135;16.738;-14.648;2023-09-12T12:25:34;17.15;;;12.13;;
81725;SDS011;71135;16.738;-14.648;2023-09-12T12:28:04;14.00;;;9.55;;
81725;SDS011;71135;16.738;-14.648;2023-09-12T12:30:33;15.57;;;11.88;;
81725;SDS011;71135;16.738;-14.648;2023-09-12T12:33:06;17.08;;;11.40;;
81725;SDS011;71135;16.738;-14.648;2023-09-12T12:40:40;14.65;;;9.80;;
81725;SDS011;71135;16.738;-14.648;2023-09-12T12:43:15;19.55;;;10.00;;
81725;SDS011;71135;16.738;-14.648;2023-09-12T12:45:52;14.15;;;9.30;;
81725;SDS011;71135;16.738;-14.648;2023-09-12T12:48:30;18.58;;;10.65;;
81725;SDS011;71135;16.738;-14.648;2023-09-12T12:51:14;17.23;;;10.65;;
81725;SDS011;71135;16.738;-14.648;2023-09-12T12:53:46;17.85;;;11.50;;
81725;SDS011;71135;16.738;-14.648;2023-09-12T12:56:17;16.88;;;12.20;;
81725;SDS011;71135;16.738;-14.648;2023-09-12T12:58:47;20.13;;;13.02;;
81725;SDS011;71135;16.738;-14.648;2023-09-12T13:01:17;18.88;;;13.23;;
81725;SDS011;71135;16.738;-14.648;2023-09-12T13:03:47;22.10;;;16.08;;
81725;SDS011;71135;16.738;-14.648;2023-09-12T13:06:19;26.13;;;16.45;;
81725;SDS011;71135;16.738;-14.648;2023-09-12T13:08:49;24.23;;;16.85;;
81725;SDS011;71135;16.738;-14.648;2023-09-12T13:11:18;25.88;;;16.80;;
81725;SDS011;71135;16.738;-14.648;2023-09-12T13:13:48;26.17;;;16.52;;
81725;SDS011;71135;16.738;-14.648;2023-09-12T13:16:18;24.38;;;16.38;;
81725;SDS011;71135;16.738;-14.648;2023-09-12T13:18:47;27.45;;;17.30;;
81725;SDS011;71135;16.738;-14.648;2023-09-12T13:21:19;32.92;;;18.20;;
81725;SDS011;71135;16.738;-14.648;2023-09-12T13:23:48;25.50;;;15.63;;
81725;SDS011;71135;16.738;-14.648;2023-09-12T13:26:17;25.35;;;15.85;;
81725;SDS011;71135;16.738;-14.648;2023-09-12T13:28:47;27.05;;;14.45;;
81725;SDS011;71135;16.738;-14.648;2023-09-12T13:31:16;23.63;;;14.82;;
81725;SDS011;71135;16.738;-14.648;2023-09-12T13:33:46;26.73;;;16.55;;
81725;SDS011;71135;16.738;-14.648;2023-09-12T13:36:15;27.92;;;16.65;;
81725;SDS011;71135;16.738;-14.648;2023-09-12T13:38:47;23.55;;;15.27;;
81725;SDS011;71135;16.738;-14.648;2023-09-12T13:41:17;29.85;;;17.70;;
81725;SDS011;71135;16.738;-14.648;2023-09-12T13:43:47;30.30;;;18.20;;
81725;SDS011;71135;16.738;-14.648;2023-09-12T13:46:17;29.30;;;17.08;;
81725;SDS011;71135;16.738;-14.648;2023-09-12T13:48:46;25.95;;;17.35;;
81725;SDS011;71135;16.738;-14.648;2023-09-12T13:51:15;27.27;;;17.55;;
81725;SDS011;71135;16.738;-14.648;2023-09-12T13:53:47;25.05;;;17.25;;
81725;SDS011;71135;16.738;-14.648;2023-09-12T13:56:16;25.80;;;15.85;;
81725;SDS011;71135;16.738;-14.648;2023-09-12T13:58:45;26.33;;;15.77;;
81725;SDS011;71135;16.738;-14.648;2023-09-12T14:01:17;22.45;;;12.98;;
81725;SDS011;71135;16.738;-14.648;2023-09-12T14:03:48;21.25;;;13.80;;
81725;SDS011;71135;16.738;-14.648;2023-09-12T14:06:18;21.25;;;13.60;;
81725;SDS011;71135;16.738;-14.648;2023-09-12T14:08:50;19.58;;;12.68;;
81725;SDS011;71135;16.738;-14.648;2023-09-12T14:11:20;17.60;;;11.77;;
81725;SDS011;71135;16.738;-14.648;2023-09-12T14:13:49;17.83;;;10.90;;
81725;SDS011;71135;16.738;-14.648;2023-09-12T14:16:18;15.38;;;9.80;;
81725;SDS011;71135;16.738;-14.648;2023-09-12T14:18:48;10.57;;;7.03;;
81725;SDS011;71135;16.738;-14.648;2023-09-12T14:21:17;11.50;;;7.82;;
81725;SDS011;71135;16.738;-14.648;2023-09-12T14:23:46;12.80;;;8.13;;
81725;SDS011;71135;16.738;-14.648;2023-09-12T14:26:18;8.27;;;5.55;;